Clayton, South Dakota
Current Conditions -  °F | °C
As of 10:53 PM on Wednesday 22 Oct 2014 (Local Time) from KMHE Reporting Station
Clear Clear  
Wind Chill: 50°   Ceiling: Unl
Heat Index: 50°   Visibility: 10mi
Dew Point: 49°   Wind: 6mph
Humidity: 96%   Direction: 200°SSW
Pressure: 30.01"   Gusts: NA
Location:  43.5283°N, 97.6775°W
Report Text: KMHE 230353Z AUTO 20005KT 10SM CLR 10/09 A3001 RMK AO2 SLP162 T01000094 $
Loading
Personal Weather Stations






























Interactive Weather Map
Tropical Storm Tracking
New forecast layout! Learn more

10-Day Weather Forecast

Advertisements
Track Severe Weather on mobile